Time;durP1;ratioP1;P1;durP2;ratioP2;P2;SDS_P1;SDS_P2;PMS_P1;PMS_P2;Temp;Humidity;BMP_temperature;BMP_pressure;BME280_temperature;BME280_humidity;BME280_pressure;Samples;Min_cycle;Max_cycle;Signal;HPM_P1;HPM_P2
2021/05/06 00:03:32;;;;;;;10.83;9.83;;;;;;;;;;5031541;28;20214;-70
2021/05/06 00:31:30;;;;;;;9.43;8.70;;;;;;;;;;5031014;28;20223;-70
2021/05/06 00:34:15;;;;;;;9.37;8.53;;;;;;;;;;5031575;28;20612;-70
2021/05/06 00:36:59;;;;;;;10.40;9.40;;;;;;;;;;5031317;28;20257;-70
2021/05/06 00:39:48;;;;;;;10.10;9.20;;;;;;;;;;5030875;28;20237;-70
2021/05/06 00:42:44;;;;;;;12.30;11.30;;;;;;;;;;5030586;28;21016;-70
2021/05/06 00:54:49;;;;;;;10.63;9.73;;;;;;;;;;5031081;28;20192;-70
2021/05/06 00:57:40;;;;;;;13.02;12.02;;;;;;;;;;5029968;28;20775;-70
2021/05/06 01:01:01;;;;;;;10.00;9.30;;;;;;;;;;5030506;28;20282;-70
2021/05/06 01:03:59;;;;;;;10.60;9.80;;;;;;;;;;5030359;28;20245;-70
2021/05/06 01:06:55;;;;;;;9.80;9.03;;;;;;;;;;5030851;28;20199;-70
2021/05/06 01:09:44;;;;;;;9.43;8.73;;;;;;;;;;5029662;28;20199;-70
2021/05/06 01:12:28;;;;;;;10.07;9.27;;;;;;;;;;5030699;28;20616;-70
2021/05/06 01:15:15;;;;;;;9.93;9.17;;;;;;;;;;5031194;28;20227;-70
2021/05/06 01:18:01;;;;;;;10.80;9.90;;;;;;;;;;5030657;28;20270;-70
2021/05/06 01:20:49;;;;;;;11.40;10.40;;;;;;;;;;5030333;28;20228;-70
2021/05/06 01:23:34;;;;;;;12.10;11.10;;;;;;;;;;5030634;28;20256;-70
2021/05/06 01:26:28;;;;;;;13.07;11.90;;;;;;;;;;5030770;28;20203;-70
2021/05/06 01:29:18;;;;;;;12.73;11.67;;;;;;;;;;5030609;28;20245;-70
2021/05/06 01:32:14;;;;;;;11.63;10.73;;;;;;;;;;5033177;28;20223;-70
2021/05/06 01:35:02;;;;;;;10.90;10.00;;;;;;;;;;5034832;28;20282;-70
2021/05/06 01:37:58;;;;;;;11.80;10.80;;;;;;;;;;5033925;28;20290;-70
2021/05/06 01:40:58;;;;;;;11.43;10.50;;;;;;;;;;5034150;28;20693;-70
2021/05/06 01:43:52;;;;;;;11.60;10.60;;;;;;;;;;5033755;28;20559;-70
2021/05/06 01:59:05;;;;;;;13.17;11.97;;;;;;;;;;5034197;28;20207;-70
2021/05/06 02:01:49;;;;;;;13.57;12.43;;;;;;;;;;5034047;28;20288;-70
2021/05/06 02:04:34;;;;;;;13.60;12.50;;;;;;;;;;5034302;28;20212;-70
2021/05/06 02:07:18;;;;;;;13.90;12.70;;;;;;;;;;5034160;28;20568;-70
2021/05/06 02:10:05;;;;;;;14.90;13.70;;;;;;;;;;5033668;28;20241;-70
2021/05/06 02:12:49;;;;;;;14.53;13.43;;;;;;;;;;5033765;28;20199;-70
2021/05/06 02:15:37;;;;;;;16.80;15.40;;;;;;;;;;5033927;28;20222;-70
2021/05/06 02:18:22;;;;;;;15.40;14.10;;;;;;;;;;5033960;28;20206;-70
2021/05/06 02:21:07;;;;;;;15.07;13.77;;;;;;;;;;5032772;28;20705;-70
2021/05/06 02:23:52;;;;;;;15.40;14.03;;;;;;;;;;5033584;28;20884;-70
2021/05/06 02:26:37;;;;;;;15.17;13.87;;;;;;;;;;5033595;28;20224;-70
2021/05/06 02:29:28;;;;;;;15.67;14.37;;;;;;;;;;5033271;28;20204;-70
2021/05/06 02:32:12;;;;;;;16.27;14.90;;;;;;;;;;5033594;28;20223;-70
2021/05/06 02:35:01;;;;;;;16.77;15.37;;;;;;;;;;5033576;28;20690;-70
2021/05/06 02:37:46;;;;;;;15.53;14.23;;;;;;;;;;5033379;28;20231;-70
2021/05/06 02:40:31;;;;;;;16.00;14.60;;;;;;;;;;5032972;28;20223;-70
2021/05/06 02:43:17;;;;;;;17.77;16.17;;;;;;;;;;5033454;28;20556;-70
2021/05/06 02:46:02;;;;;;;16.73;15.30;;;;;;;;;;5033382;28;20253;-70
2021/05/06 02:48:47;;;;;;;17.73;16.33;;;;;;;;;;5033494;28;20206;-70
2021/05/06 02:51:34;;;;;;;18.27;16.63;;;;;;;;;;5032821;28;20235;-70
2021/05/06 02:54:20;;;;;;;17.57;16.03;;;;;;;;;;5033165;28;20438;-70
2021/05/06 02:57:10;;;;;;;18.47;16.83;;;;;;;;;;5033391;28;20234;-70
2021/05/06 03:02:59;;;;;;;18.83;16.97;;;;;;;;;;5033146;28;20238;-70
2021/05/06 03:05:46;;;;;;;18.90;17.10;;;;;;;;;;5033093;28;20239;-70
2021/05/06 03:08:34;;;;;;;19.50;17.80;;;;;;;;;;5032998;28;20233;-70
2021/05/06 03:11:32;;;;;;;18.70;17.00;;;;;;;;;;5032435;28;20265;-70
2021/05/06 03:14:30;;;;;;;19.93;18.13;;;;;;;;;;5032903;28;20673;-70
2021/05/06 03:23:31;;;;;;;19.43;17.67;;;;;;;;;;5032289;28;20210;-70
2021/05/06 03:26:17;;;;;;;26.23;23.83;;;;;;;;;;5017052;28;20419;-70
2021/05/06 03:29:05;;;;;;;21.87;19.87;;;;;;;;;;5022988;28;20197;-69
2021/05/06 03:35:03;;;;;;;22.27;20.17;;;;;;;;;;5032404;28;20258;-70
2021/05/06 03:44:03;;;;;;;20.13;18.23;;;;;;;;;;5032310;28;20229;-70
2021/05/06 03:47:08;;;;;;;21.63;19.50;;;;;;;;;;5032231;28;20245;-70
2021/05/06 04:26:49;;;;;;;24.93;22.43;;;;;;;;;;5031721;28;20584;-70
2021/05/06 04:35:42;;;;;;;24.63;22.17;;;;;;;;;;5031395;28;20287;-70
2021/05/06 04:38:28;;;;;;;22.47;20.23;;;;;;;;;;5031095;28;20329;-69
2021/05/06 04:41:25;;;;;;;23.47;21.27;;;;;;;;;;5030673;28;20227;-70
2021/05/06 04:50:22;;;;;;;23.53;21.43;;;;;;;;;;5030872;28;20241;-70
2021/05/06 04:56:18;;;;;;;23.63;21.43;;;;;;;;;;5031184;28;20607;-69
2021/05/06 04:59:30;;;;;;;24.70;22.33;;;;;;;;;;5031005;28;20741;-70
2021/05/06 05:05:18;;;;;;;26.57;23.87;;;;;;;;;;5030863;28;20222;-70
2021/05/06 05:08:07;;;;;;;33.60;30.60;;;;;;;;;;5029693;28;20464;-69
2021/05/06 05:11:15;;;;;;;28.03;25.50;;;;;;;;;;5030167;28;20223;-69
2021/05/06 05:14:26;;;;;;;28.93;26.00;;;;;;;;;;5029293;28;20234;-70
2021/05/06 05:20:38;;;;;;;28.77;26.07;;;;;;;;;;5008044;28;20219;-70
2021/05/06 05:23:31;;;;;;;28.13;25.63;;;;;;;;;;5008042;28;20577;-70
2021/05/06 05:26:16;;;;;;;28.87;26.23;;;;;;;;;;5029184;28;20212;-70
2021/05/06 05:29:01;;;;;;;31.33;28.43;;;;;;;;;;5030477;28;20208;-70
2021/05/06 05:31:45;;;;;;;32.23;29.17;;;;;;;;;;5030645;28;20694;-70
2021/05/06 05:34:34;;;;;;;33.33;30.00;;;;;;;;;;5031004;28;20208;-70
2021/05/06 05:37:20;;;;;;;34.13;30.73;;;;;;;;;;5030704;28;20590;-70
2021/05/06 05:40:13;;;;;;;33.33;30.30;;;;;;;;;;5030324;28;20227;-70
2021/05/06 05:43:06;;;;;;;33.70;30.70;;;;;;;;;;5030557;28;20573;-70
2021/05/06 05:55:14;;;;;;;29.63;27.13;;;;;;;;;;5030502;28;20223;-70
2021/05/06 05:57:59;;;;;;;34.13;31.38;;;;;;;;;;5029493;28;20570;-70
2021/05/06 06:00:44;;;;;;;28.30;25.87;;;;;;;;;;5030059;28;20230;-70
2021/05/06 06:03:29;;;;;;;27.53;25.40;;;;;;;;;;5030370;28;20198;-70
2021/05/06 06:06:13;;;;;;;27.80;25.43;;;;;;;;;;5030583;28;20200;-69
2021/05/06 06:09:00;;;;;;;28.60;26.17;;;;;;;;;;5030161;28;20229;-70
2021/05/06 06:11:45;;;;;;;28.97;26.50;;;;;;;;;;5030354;28;20272;-70
2021/05/06 06:14:37;;;;;;;27.73;25.43;;;;;;;;;;5030433;28;20197;-70
2021/05/06 06:17:21;;;;;;;28.90;26.40;;;;;;;;;;5030168;28;20233;-70
2021/05/06 06:20:06;;;;;;;28.83;26.43;;;;;;;;;;5033218;28;20284;-70
2021/05/06 06:22:51;;;;;;;27.83;25.43;;;;;;;;;;5033892;28;20272;-69
2021/05/06 06:25:35;;;;;;;27.97;25.60;;;;;;;;;;5033901;28;20204;-70
2021/05/06 06:28:20;;;;;;;28.40;26.03;;;;;;;;;;5033862;28;20653;-69
2021/05/06 06:31:12;;;;;;;25.17;23.13;;;;;;;;;;5033450;28;20704;-70
2021/05/06 06:33:58;;;;;;;22.70;20.80;;;;;;;;;;5033688;28;20217;-70
2021/05/06 06:36:45;;;;;;;21.33;19.63;;;;;;;;;;5033548;28;20277;-69
2021/05/06 06:39:30;;;;;;;20.33;18.70;;;;;;;;;;5033205;28;20245;-70
2021/05/06 06:42:14;;;;;;;18.87;17.47;;;;;;;;;;5033443;28;20199;-70
2021/05/06 06:44:59;;;;;;;18.40;17.10;;;;;;;;;;5033181;28;20236;-70
2021/05/06 06:47:44;;;;;;;18.77;17.48;;;;;;;;;;5032228;28;20840;-70
2021/05/06 06:50:29;;;;;;;16.73;15.40;;;;;;;;;;5032919;28;20243;-70
2021/05/06 06:56:18;;;;;;;13.57;12.57;;;;;;;;;;5033256;28;20213;-70
2021/05/06 06:59:02;;;;;;;12.57;11.63;;;;;;;;;;5033012;28;20815;-70
2021/05/06 07:01:46;;;;;;;11.93;11.03;;;;;;;;;;5033130;28;20591;-70
2021/05/06 07:04:32;;;;;;;11.30;10.40;;;;;;;;;;5032846;28;20204;-70
2021/05/06 07:07:21;;;;;;;11.03;10.23;;;;;;;;;;5032968;28;20317;-70
2021/05/06 07:10:05;;;;;;;10.40;9.70;;;;;;;;;;5032519;28;20650;-70
2021/05/06 07:12:50;;;;;;;9.83;9.13;;;;;;;;;;5032595;28;20278;-70
2021/05/06 07:15:35;;;;;;;10.13;9.27;;;;;;;;;;5033003;28;20256;-70
2021/05/06 07:18:20;;;;;;;9.70;8.90;;;;;;;;;;5032507;28;20237;-70
2021/05/06 07:21:06;;;;;;;10.30;9.55;;;;;;;;;;5031285;28;20545;-70
2021/05/06 07:23:56;;;;;;;9.83;9.13;;;;;;;;;;5032300;28;20260;-69
2021/05/06 07:26:41;;;;;;;8.90;8.20;;;;;;;;;;5023167;28;20562;-70
2021/05/06 07:29:26;;;;;;;8.43;7.73;;;;;;;;;;5032002;28;20201;-70
2021/05/06 07:32:10;;;;;;;8.60;7.87;;;;;;;;;;5023210;28;20252;-70
2021/05/06 07:35:12;;;;;;;8.95;8.30;;;;;;;;;;5032121;28;20426;-71
2021/05/06 07:37:58;;;;;;;8.73;8.03;;;;;;;;;;5031195;28;20236;-70
2021/05/06 07:40:42;;;;;;;7.77;7.13;;;;;;;;;;5030793;28;20256;-72
2021/05/06 07:43:28;;;;;;;14.00;12.70;;;;;;;;;;5031874;28;20731;-71
2021/05/06 07:46:13;;;;;;;12.13;11.17;;;;;;;;;;5032200;28;20209;-71
2021/05/06 07:48:57;;;;;;;11.80;10.80;;;;;;;;;;5025183;28;20755;-69
2021/05/06 07:51:41;;;;;;;8.87;8.07;;;;;;;;;;5028051;28;20213;-70
2021/05/06 07:54:27;;;;;;;9.67;8.87;;;;;;;;;;5031801;28;20212;-70
2021/05/06 07:57:11;;;;;;;12.00;11.00;;;;;;;;;;5024254;28;20261;-69
2021/05/06 07:59:56;;;;;;;10.57;9.77;;;;;;;;;;5031233;28;20264;-70
2021/05/06 08:02:42;;;;;;;9.93;9.03;;;;;;;;;;5029092;28;20217;-69
2021/05/06 08:05:26;;;;;;;9.57;8.87;;;;;;;;;;5031540;28;20216;-69
2021/05/06 08:08:11;;;;;;;9.27;8.57;;;;;;;;;;5031452;28;20205;-68
2021/05/06 08:10:57;;;;;;;9.30;8.60;;;;;;;;;;5030966;28;20309;-69
2021/05/06 08:13:41;;;;;;;9.97;9.20;;;;;;;;;;5031654;28;20248;-69
2021/05/06 08:16:30;;;;;;;9.93;9.23;;;;;;;;;;5030641;28;20253;-70
2021/05/06 08:19:17;;;;;;;10.77;9.87;;;;;;;;;;5027069;28;20202;-70
2021/05/06 08:22:02;;;;;;;10.43;9.55;;;;;;;;;;5029321;28;20431;-70
2021/05/06 08:24:46;;;;;;;10.97;9.90;;;;;;;;;;5030480;28;20340;-71
2021/05/06 08:27:32;;;;;;;11.47;10.57;;;;;;;;;;5023890;28;20206;-70
2021/05/06 08:30:22;;;;;;;11.87;10.90;;;;;;;;;;5030337;28;20245;-70
2021/05/06 08:33:06;;;;;;;14.10;13.07;;;;;;;;;;5030963;28;20560;-69
2021/05/06 08:35:52;;;;;;;13.60;12.50;;;;;;;;;;5031191;28;20252;-69
2021/05/06 08:38:39;;;;;;;14.47;13.23;;;;;;;;;;5030640;28;20310;-70
2021/05/06 08:41:24;;;;;;;14.57;13.43;;;;;;;;;;5010508;28;20302;-70
2021/05/06 08:44:10;;;;;;;15.43;14.23;;;;;;;;;;5015201;28;20760;-70
2021/05/06 08:47:03;;;;;;;14.47;13.07;;;;;;;;;;5011363;28;20218;-69
2021/05/06 08:49:48;;;;;;;12.33;11.40;;;;;;;;;;5019347;28;20218;-70
2021/05/06 08:52:32;;;;;;;12.90;11.80;;;;;;;;;;5030572;28;20248;-72
2021/05/06 08:55:18;;;;;;;13.43;12.33;;;;;;;;;;5030401;28;20943;-72
2021/05/06 08:58:02;;;;;;;13.47;12.37;;;;;;;;;;5019572;28;20230;-72
2021/05/06 09:00:48;;;;;;;13.23;12.17;;;;;;;;;;5029799;28;20582;-72
2021/05/06 09:03:35;;;;;;;12.33;11.23;;;;;;;;;;5031049;28;20202;-72
2021/05/06 09:06:23;;;;;;;10.47;9.63;;;;;;;;;;5030923;28;20210;-72
2021/05/06 09:09:16;;;;;;;10.40;9.60;;;;;;;;;;5029888;28;20592;-72
2021/05/06 09:12:02;;;;;;;13.38;12.38;;;;;;;;;;5029401;28;20869;-73
2021/05/06 09:14:48;;;;;;;10.80;9.87;;;;;;;;;;5030293;28;20290;-69
2021/05/06 09:17:35;;;;;;;11.30;10.40;;;;;;;;;;5029975;28;20711;-68
2021/05/06 09:20:21;;;;;;;10.40;9.60;;;;;;;;;;5025754;28;20225;-69
2021/05/06 09:23:06;;;;;;;11.30;10.33;;;;;;;;;;5025885;28;20218;-69
2021/05/06 09:25:54;;;;;;;10.87;10.07;;;;;;;;;;5029397;28;20264;-69
2021/05/06 09:28:38;;;;;;;10.33;9.53;;;;;;;;;;5030051;28;20305;-70
2021/05/06 09:31:31;;;;;;;9.33;8.63;;;;;;;;;;5030087;28;20598;-69
2021/05/06 09:34:16;;;;;;;8.77;7.97;;;;;;;;;;5029996;28;20253;-69
2021/05/06 09:37:02;;;;;;;12.00;11.10;;;;;;;;;;5030374;28;20281;-69
2021/05/06 09:39:56;;;;;;;10.30;9.60;;;;;;;;;;5030076;28;20226;-69
2021/05/06 09:42:44;;;;;;;11.00;10.00;;;;;;;;;;5010359;28;20261;-71
2021/05/06 09:45:37;;;;;;;12.60;11.70;;;;;;;;;;5027870;28;20426;-70
2021/05/06 09:48:22;;;;;;;14.87;13.63;;;;;;;;;;5029675;28;20564;-71
2021/05/06 09:51:13;;;;;;;13.17;12.00;;;;;;;;;;5029833;28;20217;-70
2021/05/06 09:53:58;;;;;;;12.20;11.10;;;;;;;;;;5029885;28;20644;-70
2021/05/06 09:56:43;;;;;;;12.90;11.90;;;;;;;;;;5033956;28;20288;-70
2021/05/06 09:59:29;;;;;;;14.10;13.10;;;;;;;;;;5033031;28;20450;-70
2021/05/06 10:02:14;;;;;;;11.20;10.40;;;;;;;;;;5034091;28;20329;-69
2021/05/06 10:05:05;;;;;;;13.10;12.10;;;;;;;;;;5033644;28;20288;-70
2021/05/06 10:07:52;;;;;;;12.23;11.33;;;;;;;;;;5033706;28;20283;-69
2021/05/06 10:10:38;;;;;;;11.70;10.80;;;;;;;;;;5033601;28;20720;-69
2021/05/06 10:13:23;;;;;;;13.70;12.60;;;;;;;;;;5033479;28;20206;-69
2021/05/06 10:16:12;;;;;;;9.67;8.97;;;;;;;;;;5034094;28;20202;-69
2021/05/06 10:18:57;;;;;;;9.80;9.10;;;;;;;;;;5033163;28;20633;-69
2021/05/06 10:21:41;;;;;;;9.73;9.03;;;;;;;;;;5033243;28;20261;-69
2021/05/06 10:24:29;;;;;;;10.23;9.50;;;;;;;;;;5033014;28;20256;-69
2021/05/06 10:27:15;;;;;;;11.10;10.20;;;;;;;;;;5033306;28;20210;-69
2021/05/06 10:30:01;;;;;;;10.43;9.53;;;;;;;;;;5013403;28;20225;-70
2021/05/06 10:32:46;;;;;;;10.63;9.73;;;;;;;;;;5021475;28;20266;-69
2021/05/06 10:35:31;;;;;;;10.60;9.90;;;;;;;;;;5033403;28;20205;-69
2021/05/06 10:38:15;;;;;;;10.00;9.30;;;;;;;;;;5032807;28;20245;-69
2021/05/06 10:41:14;;;;;;;10.07;9.13;;;;;;;;;;5033210;28;20226;-69
2021/05/06 10:44:00;;;;;;;10.07;9.27;;;;;;;;;;5032988;28;20249;-69
2021/05/06 10:46:58;;;;;;;9.98;9.27;;;;;;;;;;5032842;28;20457;-69
2021/05/06 10:49:58;;;;;;;9.20;8.43;;;;;;;;;;5032226;28;20222;-69
2021/05/06 10:52:44;;;;;;;8.93;8.33;;;;;;;;;;5032763;28;20202;-69
2021/05/06 10:55:40;;;;;;;8.77;8.07;;;;;;;;;;5032717;28;20221;-69
2021/05/06 10:58:42;;;;;;;8.80;8.20;;;;;;;;;;5021306;28;20268;-69
2021/05/06 11:01:27;;;;;;;10.63;9.87;;;;;;;;;;5031760;28;20245;-69
2021/05/06 11:04:11;;;;;;;11.53;10.73;;;;;;;;;;5031266;28;20198;-69
2021/05/06 11:07:11;;;;;;;12.03;11.13;;;;;;;;;;5032645;28;20723;-69
2021/05/06 11:10:01;;;;;;;12.80;11.70;;;;;;;;;;5032129;28;20281;-70
2021/05/06 11:12:55;;;;;;;11.73;10.83;;;;;;;;;;5032024;28;20875;-70
2021/05/06 11:15:39;;;;;;;12.33;11.17;;;;;;;;;;5021026;28;20563;-69
2021/05/06 11:21:33;;;;;;;11.83;10.93;;;;;;;;;;5107341;27;20533;-68
2021/05/06 11:24:19;;;;;;;11.63;10.77;;;;;;;;;;5101139;28;20211;-68
2021/05/06 11:27:20;;;;;;;12.23;11.27;;;;;;;;;;5114838;28;20260;-70
2021/05/06 11:30:19;;;;;;;11.10;10.30;;;;;;;;;;5106209;28;20237;-69
2021/05/06 11:33:18;;;;;;;11.27;10.37;;;;;;;;;;5098432;28;20857;-70
2021/05/06 11:36:04;;;;;;;11.43;10.63;;;;;;;;;;5100310;28;20833;-69
2021/05/06 11:38:51;;;;;;;11.40;10.60;;;;;;;;;;5094874;28;20234;-70
2021/05/06 11:41:36;;;;;;;11.57;10.60;;;;;;;;;;5087473;28;20671;-69
2021/05/06 11:44:20;;;;;;;10.43;9.73;;;;;;;;;;5088655;28;20208;-69
2021/05/06 11:47:05;;;;;;;11.17;10.37;;;;;;;;;;5088017;28;20326;-69
2021/05/06 11:49:49;;;;;;;11.90;11.00;;;;;;;;;;5099800;28;20238;-71
2021/05/06 11:52:34;;;;;;;11.47;10.47;;;;;;;;;;5107952;28;20595;-71
2021/05/06 11:55:28;;;;;;;12.67;11.67;;;;;;;;;;5099923;28;20211;-70
2021/05/06 11:58:22;;;;;;;8.10;7.40;;;;;;;;;;5087436;28;20219;-70
2021/05/06 12:01:09;;;;;;;5.70;5.30;;;;;;;;;;5099649;28;20273;-70
2021/05/06 12:03:54;;;;;;;5.30;4.90;;;;;;;;;;5098297;28;20200;-71
2021/05/06 12:06:38;;;;;;;5.10;4.70;;;;;;;;;;5088814;28;20207;-71
2021/05/06 12:09:25;;;;;;;5.50;5.10;;;;;;;;;;5093333;28;20410;-72
2021/05/06 12:12:09;;;;;;;5.50;5.10;;;;;;;;;;5089920;28;20256;-72
2021/05/06 12:15:05;;;;;;;5.77;5.37;;;;;;;;;;5100645;28;20230;-73
2021/05/06 12:18:10;;;;;;;6.30;5.80;;;;;;;;;;5102902;28;20251;-72
2021/05/06 12:21:02;;;;;;;7.77;6.73;;;;;;;;;;5087382;28;20487;-72
2021/05/06 12:23:47;;;;;;;7.13;6.60;;;;;;;;;;5087067;28;20584;-72
2021/05/06 12:26:32;;;;;;;8.07;7.37;;;;;;;;;;5087063;28;20250;-74
2021/05/06 12:29:23;;;;;;;7.67;7.17;;;;;;;;;;5090919;28;20244;-73
2021/05/06 12:32:18;;;;;;;8.20;7.40;;;;;;;;;;5088364;28;20203;-75
2021/05/06 12:35:03;;;;;;;8.63;8.03;;;;;;;;;;5081079;28;20206;-77
2021/05/06 12:37:50;;;;;;;8.03;7.43;;;;;;;;;;5092683;28;20196;-74
2021/05/06 12:40:36;;;;;;;9.20;8.50;;;;;;;;;;5073015;28;20236;-74
2021/05/06 12:43:27;;;;;;;8.77;8.07;;;;;;;;;;5079170;28;20215;-74
2021/05/06 12:46:12;;;;;;;8.10;7.40;;;;;;;;;;5088600;28;20223;-72
2021/05/06 12:48:58;;;;;;;8.17;7.57;;;;;;;;;;5079021;28;20228;-79
2021/05/06 12:51:42;;;;;;;8.37;7.73;;;;;;;;;;5089465;28;20214;-73
2021/05/06 12:54:33;;;;;;;7.83;7.17;;;;;;;;;;5079745;28;20227;-74
2021/05/06 12:57:17;;;;;;;9.50;8.80;;;;;;;;;;5083482;28;20427;-74
2021/05/06 13:00:21;;;;;;;8.60;7.90;;;;;;;;;;5084030;28;20300;-74
2021/05/06 13:03:09;;;;;;;8.10;7.50;;;;;;;;;;5085944;28;20604;-73
2021/05/06 13:05:55;;;;;;;7.57;7.07;;;;;;;;;;5072732;28;20200;-73
2021/05/06 13:08:42;;;;;;;7.63;6.93;;;;;;;;;;5081993;28;20247;-72
2021/05/06 13:11:28;;;;;;;7.97;7.38;;;;;;;;;;5087098;28;20387;-73
2021/05/06 13:14:12;;;;;;;7.00;6.50;;;;;;;;;;5086507;28;20204;-73
2021/05/06 13:16:56;;;;;;;7.03;6.43;;;;;;;;;;5083728;28;20251;-72
2021/05/06 13:19:41;;;;;;;7.50;6.90;;;;;;;;;;5073907;28;20251;-72
2021/05/06 13:22:29;;;;;;;7.27;6.60;;;;;;;;;;5087100;28;20255;-72
2021/05/06 13:25:14;;;;;;;6.67;6.27;;;;;;;;;;5081664;28;20843;-72
2021/05/06 13:28:01;;;;;;;6.23;5.80;;;;;;;;;;5076431;28;20198;-72
2021/05/06 13:30:46;;;;;;;6.77;6.27;;;;;;;;;;5089250;28;20909;-71
2021/05/06 13:33:30;;;;;;;6.40;6.00;;;;;;;;;;5091970;28;20208;-71
2021/05/06 13:36:16;;;;;;;6.30;5.80;;;;;;;;;;5092599;28;20259;-71
2021/05/06 13:39:03;;;;;;;6.20;5.80;;;;;;;;;;5077508;28;20636;-71
2021/05/06 13:41:47;;;;;;;6.73;6.23;;;;;;;;;;5092554;28;20277;-72
2021/05/06 13:44:32;;;;;;;6.57;6.07;;;;;;;;;;5073362;28;20240;-72
2021/05/06 13:47:19;;;;;;;6.40;5.90;;;;;;;;;;5088148;28;20214;-71
2021/05/06 13:50:04;;;;;;;5.80;5.30;;;;;;;;;;5087540;28;20223;-71
2021/05/06 13:52:48;;;;;;;6.23;5.83;;;;;;;;;;5085415;28;20567;-72
2021/05/06 13:55:34;;;;;;;6.07;5.57;;;;;;;;;;5075516;28;20203;-71
2021/05/06 13:58:18;;;;;;;5.60;5.20;;;;;;;;;;5082742;28;20229;-71
2021/05/06 14:01:04;;;;;;;7.05;6.50;;;;;;;;;;5069851;28;20485;-73
2021/05/06 14:03:48;;;;;;;6.67;6.07;;;;;;;;;;5071987;28;20236;-71
2021/05/06 14:06:33;;;;;;;5.87;5.47;;;;;;;;;;5075642;28;20203;-71
2021/05/06 14:09:18;;;;;;;6.10;5.63;;;;;;;;;;5082027;28;20225;-71
2021/05/06 14:12:03;;;;;;;6.47;5.97;;;;;;;;;;5087406;28;20219;-71
2021/05/06 14:14:51;;;;;;;6.40;5.90;;;;;;;;;;5074973;28;20253;-71
2021/05/06 14:17:40;;;;;;;6.57;6.10;;;;;;;;;;5071504;28;20208;-72
2021/05/06 14:20:30;;;;;;;6.33;5.83;;;;;;;;;;5070808;28;20262;-72
2021/05/06 14:23:16;;;;;;;7.23;6.73;;;;;;;;;;5085331;28;20234;-72
2021/05/06 14:26:01;;;;;;;6.70;6.20;;;;;;;;;;5089354;28;20219;-72
2021/05/06 14:28:46;;;;;;;6.40;5.90;;;;;;;;;;5088172;28;20229;-72
2021/05/06 14:31:32;;;;;;;8.17;7.40;;;;;;;;;;5090250;28;20206;-71
2021/05/06 14:34:17;;;;;;;9.07;8.23;;;;;;;;;;5086079;28;20937;-72
2021/05/06 14:37:01;;;;;;;7.90;7.30;;;;;;;;;;5083774;28;20246;-72
2021/05/06 14:39:46;;;;;;;7.20;6.60;;;;;;;;;;5070706;28;20227;-73
2021/05/06 14:42:30;;;;;;;7.47;6.73;;;;;;;;;;5083351;28;20276;-72
2021/05/06 14:45:16;;;;;;;7.10;6.50;;;;;;;;;;5071005;28;20199;-72
2021/05/06 14:48:02;;;;;;;6.67;6.10;;;;;;;;;;5075948;28;20214;-72
2021/05/06 14:50:47;;;;;;;6.40;5.90;;;;;;;;;;5071340;28;20203;-72
2021/05/06 14:53:31;;;;;;;6.10;5.70;;;;;;;;;;5091094;28;20207;-72
2021/05/06 14:56:17;;;;;;;7.67;7.07;;;;;;;;;;5085573;28;20195;-72
2021/05/06 14:59:02;;;;;;;6.77;6.27;;;;;;;;;;5079235;28;20272;-74
2021/05/06 15:01:48;;;;;;;7.47;6.87;;;;;;;;;;5082761;28;20333;-73
2021/05/06 15:04:32;;;;;;;6.70;6.17;;;;;;;;;;5087470;28;20207;-75
2021/05/06 15:07:17;;;;;;;6.40;5.90;;;;;;;;;;5071287;28;20211;-75
2021/05/06 15:10:01;;;;;;;6.83;6.23;;;;;;;;;;5070469;28;20211;-75
2021/05/06 15:12:46;;;;;;;6.60;6.10;;;;;;;;;;5086897;28;20685;-75
2021/05/06 15:15:31;;;;;;;6.57;6.17;;;;;;;;;;5074328;28;20230;-75
2021/05/06 15:18:17;;;;;;;6.33;5.93;;;;;;;;;;5070652;28;20251;-75
2021/05/06 15:21:02;;;;;;;6.73;6.23;;;;;;;;;;5085047;28;20263;-75
2021/05/06 15:23:47;;;;;;;7.55;6.90;;;;;;;;;;5088410;28;20800;-75
2021/05/06 15:26:33;;;;;;;7.33;6.73;;;;;;;;;;5083443;28;20204;-78
2021/05/06 15:29:17;;;;;;;6.70;6.20;;;;;;;;;;5070056;28;20653;-75
2021/05/06 15:32:02;;;;;;;7.10;6.43;;;;;;;;;;5078179;28;20579;-76
2021/05/06 15:34:50;;;;;;;7.33;6.83;;;;;;;;;;5074288;28;20622;-74
2021/05/06 15:37:37;;;;;;;6.82;6.32;;;;;;;;;;5084228;28;20481;-76
2021/05/06 15:40:22;;;;;;;7.10;6.47;;;;;;;;;;5089968;28;20223;-76
2021/05/06 15:43:07;;;;;;;7.07;6.57;;;;;;;;;;5086458;28;20211;-76
2021/05/06 15:45:54;;;;;;;7.33;6.70;;;;;;;;;;5081773;28;20288;-75
2021/05/06 15:48:39;;;;;;;6.73;6.23;;;;;;;;;;5072432;28;20737;-75
2021/05/06 15:51:24;;;;;;;6.80;6.37;;;;;;;;;;5075486;28;20211;-76
2021/05/06 15:54:11;;;;;;;6.30;5.90;;;;;;;;;;5090230;28;20249;-76
2021/05/06 15:56:57;;;;;;;6.47;6.07;;;;;;;;;;5091029;28;20242;-75
2021/05/06 15:59:44;;;;;;;7.87;7.27;;;;;;;;;;5082264;28;20222;-76
2021/05/06 16:02:31;;;;;;;8.10;7.50;;;;;;;;;;5070678;28;20250;-74
2021/05/06 16:05:22;;;;;;;8.03;7.43;;;;;;;;;;5088358;28;20281;-72
2021/05/06 16:08:08;;;;;;;7.40;6.80;;;;;;;;;;5091244;28;20223;-73
2021/05/06 16:10:52;;;;;;;6.83;6.30;;;;;;;;;;5089893;28;20703;-72
2021/05/06 16:13:36;;;;;;;8.20;7.55;;;;;;;;;;5089500;28;20417;-72
2021/05/06 16:16:21;;;;;;;7.57;6.87;;;;;;;;;;5094120;28;20651;-74
2021/05/06 16:19:08;;;;;;;8.07;7.37;;;;;;;;;;5093756;28;20199;-72
2021/05/06 16:21:55;;;;;;;7.50;7.00;;;;;;;;;;5094093;28;20287;-73
2021/05/06 16:24:41;;;;;;;8.03;7.43;;;;;;;;;;5091219;28;20716;-74
2021/05/06 16:30:26;;;;;;;7.30;6.80;;;;;;;;;;5087054;28;20198;-74
2021/05/06 16:33:11;;;;;;;7.37;6.77;;;;;;;;;;5089305;28;20257;-74
2021/05/06 16:36:03;;;;;;;8.10;7.50;;;;;;;;;;5087391;28;20198;-76
2021/05/06 16:38:56;;;;;;;7.87;7.20;;;;;;;;;;5080966;28;20218;-74
2021/05/06 16:41:48;;;;;;;7.60;7.00;;;;;;;;;;5076871;28;20235;-73
2021/05/06 16:44:33;;;;;;;7.40;6.70;;;;;;;;;;5078308;28;20198;-74
2021/05/06 16:47:18;;;;;;;8.10;7.53;;;;;;;;;;5093860;28;20742;-73
2021/05/06 16:50:03;;;;;;;8.07;7.50;;;;;;;;;;5092010;28;20201;-73
2021/05/06 16:52:48;;;;;;;8.17;7.67;;;;;;;;;;5081144;28;20680;-74
2021/05/06 16:55:36;;;;;;;8.60;7.90;;;;;;;;;;5076185;28;20678;-72
2021/05/06 16:58:23;;;;;;;7.97;7.43;;;;;;;;;;5084885;28;20277;-73
2021/05/06 17:01:07;;;;;;;8.50;7.90;;;;;;;;;;5073123;28;20453;-73
2021/05/06 17:03:52;;;;;;;8.73;8.03;;;;;;;;;;5072817;28;20713;-72
2021/05/06 17:06:37;;;;;;;8.60;7.93;;;;;;;;;;5081564;28;20229;-73
2021/05/06 17:09:21;;;;;;;10.13;9.27;;;;;;;;;;5092516;28;20273;-73
2021/05/06 17:12:06;;;;;;;9.67;8.97;;;;;;;;;;5090473;28;20257;-73
2021/05/06 17:14:51;;;;;;;10.55;9.75;;;;;;;;;;5086496;28;20423;-73
2021/05/06 17:17:37;;;;;;;9.50;8.80;;;;;;;;;;5072365;28;20254;-71
2021/05/06 17:20:22;;;;;;;9.10;8.40;;;;;;;;;;5071721;28;20604;-72
2021/05/06 17:23:07;;;;;;;9.00;8.30;;;;;;;;;;5072149;28;20214;-72
2021/05/06 17:25:53;;;;;;;9.70;9.00;;;;;;;;;;5074344;28;20237;-72
2021/05/06 17:28:37;;;;;;;4.53;4.20;;;;;;;;;;5085993;28;20235;-73
2021/05/06 17:31:22;;;;;;;3.97;3.77;;;;;;;;;;5087600;28;20226;-72
2021/05/06 17:34:07;;;;;;;4.73;4.43;;;;;;;;;;5075897;28;20197;-72
2021/05/06 17:36:51;;;;;;;4.97;4.57;;;;;;;;;;5092547;28;20231;-73
2021/05/06 17:39:37;;;;;;;4.80;4.50;;;;;;;;;;5092004;28;20242;-74
2021/05/06 17:42:22;;;;;;;4.53;4.23;;;;;;;;;;5092106;28;20257;-73
2021/05/06 17:45:07;;;;;;;4.40;4.10;;;;;;;;;;5092378;28;20203;-73
2021/05/06 17:47:55;;;;;;;4.00;3.80;;;;;;;;;;5088868;28;20220;-73
2021/05/06 17:50:40;;;;;;;4.30;4.00;;;;;;;;;;5089200;28;20471;-73
2021/05/06 17:53:27;;;;;;;4.90;4.50;;;;;;;;;;5089182;28;20629;-68
2021/05/06 17:56:11;;;;;;;5.47;5.07;;;;;;;;;;5091868;28;20195;-71
2021/05/06 17:58:58;;;;;;;9.13;8.33;;;;;;;;;;5080424;28;20231;-72
2021/05/06 18:01:46;;;;;;;7.03;6.43;;;;;;;;;;5076653;28;20247;-69
2021/05/06 18:04:33;;;;;;;4.07;3.60;;;;;;;;;;5070767;28;20450;-69
2021/05/06 18:07:18;;;;;;;3.90;3.60;;;;;;;;;;5088131;28;20592;-69
2021/05/06 18:10:06;;;;;;;3.97;3.60;;;;;;;;;;5080451;28;20595;-70
2021/05/06 18:12:51;;;;;;;3.83;3.40;;;;;;;;;;5071335;28;20200;-70
2021/05/06 18:15:35;;;;;;;3.97;3.57;;;;;;;;;;5074605;28;20203;-73
2021/05/06 18:18:20;;;;;;;4.10;3.80;;;;;;;;;;5078671;28;20231;-71
2021/05/06 18:21:07;;;;;;;4.07;3.77;;;;;;;;;;5081859;28;20231;-71
2021/05/06 18:23:52;;;;;;;4.83;4.33;;;;;;;;;;5071295;28;20226;-72
2021/05/06 18:26:39;;;;;;;4.63;4.23;;;;;;;;;;5071326;28;20744;-71
2021/05/06 18:29:24;;;;;;;4.50;4.20;;;;;;;;;;5070281;28;20210;-71
2021/05/06 18:32:11;;;;;;;5.00;4.50;;;;;;;;;;5071049;28;20199;-74
2021/05/06 18:34:58;;;;;;;5.53;5.13;;;;;;;;;;5074835;28;20204;-75
2021/05/06 18:37:43;;;;;;;5.43;4.93;;;;;;;;;;5071283;28;20252;-71
2021/05/06 18:40:29;;;;;;;5.82;5.43;;;;;;;;;;5069430;28;20438;-74
2021/05/06 18:43:19;;;;;;;5.37;4.97;;;;;;;;;;5074408;28;20253;-72
2021/05/06 18:46:06;;;;;;;5.03;4.67;;;;;;;;;;5080405;28;20269;-73
2021/05/06 18:48:53;;;;;;;5.40;4.90;;;;;;;;;;5085499;28;20248;-76
2021/05/06 18:51:39;;;;;;;5.00;4.60;;;;;;;;;;5072802;28;20208;-75
2021/05/06 18:54:24;;;;;;;5.10;4.70;;;;;;;;;;5070582;28;20422;-73